createdAt,value
2023-02-07T00:00:48.554Z,66.60
2023-02-07T00:03:15.255Z,66.50
2023-02-07T00:05:41.968Z,66.40
2023-02-07T00:08:09.235Z,66.40
2023-02-07T00:10:36.542Z,66.40
2023-02-07T00:13:05.369Z,66.50
2023-02-07T00:15:32.921Z,66.50
2023-02-07T00:17:59.569Z,66.60
2023-02-07T00:20:26.223Z,66.70
2023-02-07T00:22:52.822Z,66.80
2023-02-07T00:25:19.485Z,66.80
2023-02-07T00:27:46.161Z,66.80
2023-02-07T00:30:13.208Z,66.90
2023-02-07T00:32:39.810Z,66.90
2023-02-07T00:35:07.007Z,66.90
2023-02-07T00:37:33.629Z,66.90
2023-02-07T00:40:00.251Z,66.90
2023-02-07T00:42:26.877Z,66.90
2023-02-07T00:44:53.517Z,66.90
2023-02-07T00:47:20.279Z,67.00
2023-02-07T00:49:47.039Z,67.00
2023-02-07T00:52:13.935Z,66.90
2023-02-07T00:54:40.580Z,66.90
2023-02-07T00:57:07.163Z,66.90
2023-02-07T00:59:33.757Z,66.90
2023-02-07T01:02:00.402Z,66.90
2023-02-07T01:04:27.027Z,66.90
2023-02-07T01:06:53.679Z,67.00
2023-02-07T01:09:20.247Z,67.00
2023-02-07T01:11:46.896Z,67.00
2023-02-07T01:14:13.603Z,67.00
2023-02-07T01:16:40.199Z,67.00
2023-02-07T01:19:09.480Z,67.10
2023-02-07T01:21:37.035Z,67.10
2023-02-07T01:24:03.974Z,67.10
2023-02-07T01:26:30.645Z,67.10
2023-02-07T01:28:57.580Z,67.10
2023-02-07T01:31:24.485Z,67.10
2023-02-07T01:33:56.209Z,67.20
2023-02-07T01:36:23.226Z,67.20
2023-02-07T01:38:53.191Z,67.20
2023-02-07T01:41:21.318Z,67.20
2023-02-07T01:44:28.400Z,67.20
2023-02-07T01:46:56.484Z,67.20
2023-02-07T01:49:32.155Z,67.20
2023-02-07T01:52:04.728Z,67.20
2023-02-07T01:54:33.525Z,67.20
2023-02-07T01:57:05.992Z,67.10
2023-02-07T01:59:35.599Z,67.10
2023-02-07T02:02:04.429Z,67.20
2023-02-07T02:04:31.218Z,67.20
2023-02-07T02:06:58.314Z,67.20
2023-02-07T02:09:27.052Z,67.20
2023-02-07T02:12:16.997Z,67.20
2023-02-07T02:14:55.258Z,67.20
2023-02-07T02:17:44.932Z,67.20
2023-02-07T02:20:30.175Z,67.20
2023-02-07T02:23:21.446Z,67.20
2023-02-07T02:26:25.744Z,67.20
2023-02-07T02:29:11.183Z,67.20
2023-02-07T02:32:05.691Z,67.20
2023-02-07T02:34:55.061Z,67.30
2023-02-07T02:37:25.375Z,67.30
2023-02-07T02:40:01.262Z,67.30
2023-02-07T02:42:35.388Z,67.30
2023-02-07T02:45:13.848Z,67.40
2023-02-07T02:47:44.574Z,67.40
2023-02-07T02:50:18.337Z,67.40
2023-02-07T02:52:50.894Z,67.40
2023-02-07T02:55:22.436Z,67.40
2023-02-07T02:58:13.993Z,67.40
2023-02-07T03:01:21.221Z,67.40
2023-02-07T03:04:07.766Z,67.40
2023-02-07T03:07:10.676Z,67.40
2023-02-07T03:10:05.048Z,67.40
2023-02-07T03:12:41.958Z,67.40
2023-02-07T03:15:41.094Z,67.50
2023-02-07T03:18:15.428Z,67.50
2023-02-07T03:20:51.932Z,67.50
2023-02-07T03:23:21.052Z,67.50
2023-02-07T03:25:50.332Z,67.60
2023-02-07T03:28:20.283Z,67.70
2023-02-07T03:30:50.640Z,67.80
2023-02-07T03:33:19.163Z,67.80
2023-02-07T03:36:06.174Z,67.90
2023-02-07T03:38:33.042Z,67.90
2023-02-07T03:41:07.025Z,67.90
2023-02-07T03:43:34.911Z,67.90
2023-02-07T03:46:01.727Z,68.00
2023-02-07T03:48:28.373Z,68.00
2023-02-07T03:50:55.000Z,68.10
2023-02-07T03:53:21.890Z,68.20
2023-02-07T03:55:48.520Z,68.20
2023-02-07T03:58:15.111Z,68.10
2023-02-07T04:00:41.756Z,68.10
2023-02-07T04:03:08.412Z,68.10
2023-02-07T04:05:35.457Z,68.10
2023-02-07T04:08:02.300Z,68.10
2023-02-07T04:10:28.945Z,68.10
2023-02-07T04:12:55.533Z,68.10
2023-02-07T04:15:22.453Z,68.20
2023-02-07T04:17:49.061Z,68.20
2023-02-07T04:20:15.732Z,68.30
2023-02-07T04:22:42.414Z,68.30
2023-02-07T04:25:09.119Z,68.40
2023-02-07T04:27:35.717Z,68.50
2023-02-07T04:30:02.330Z,68.50
2023-02-07T04:32:28.949Z,68.50
2023-02-07T04:34:55.571Z,68.60
2023-02-07T04:37:22.191Z,68.60
2023-02-07T04:39:48.847Z,68.60
2023-02-07T04:42:15.508Z,68.60
2023-02-07T04:44:42.170Z,68.70
2023-02-07T04:47:08.830Z,68.80
2023-02-07T04:49:35.429Z,68.80
2023-02-07T04:52:02.290Z,68.80
2023-02-07T04:54:28.881Z,68.80
2023-02-07T04:56:55.862Z,68.80
2023-02-07T04:59:22.642Z,68.80
2023-02-07T05:01:49.294Z,68.80
2023-02-07T05:04:15.997Z,68.80
2023-02-07T05:06:43.205Z,68.80
2023-02-07T05:09:09.843Z,68.90
2023-02-07T05:11:36.554Z,68.80
2023-02-07T05:14:03.179Z,68.90
2023-02-07T05:16:29.922Z,68.90
2023-02-07T05:18:56.531Z,68.90
2023-02-07T05:21:23.137Z,69.00
2023-02-07T05:23:49.793Z,69.00
2023-02-07T05:26:17.313Z,69.00
2023-02-07T05:28:44.236Z,69.00
2023-02-07T05:31:10.927Z,69.00
2023-02-07T05:33:37.600Z,69.00
2023-02-07T05:36:05.053Z,69.10
2023-02-07T05:38:31.645Z,69.10
2023-02-07T05:40:58.256Z,69.20
2023-02-07T05:43:24.839Z,69.30
2023-02-07T05:45:51.557Z,69.30
2023-02-07T05:48:18.657Z,69.30
2023-02-07T05:50:45.270Z,69.30
2023-02-07T05:53:12.867Z,69.40
2023-02-07T05:55:39.869Z,69.30
2023-02-07T05:58:06.647Z,69.40
2023-02-07T06:00:33.586Z,69.40
2023-02-07T06:03:00.167Z,69.40
2023-02-07T06:05:31.496Z,69.40
2023-02-07T06:07:58.299Z,69.50
2023-02-07T06:10:24.905Z,69.40
2023-02-07T06:12:51.524Z,69.40
2023-02-07T06:15:18.220Z,69.40
2023-02-07T06:17:44.821Z,69.50
2023-02-07T06:20:11.868Z,69.50
2023-02-07T06:22:38.503Z,69.60
2023-02-07T06:25:05.460Z,69.60
2023-02-07T06:27:32.077Z,69.60
2023-02-07T06:29:58.762Z,69.60
2023-02-07T06:32:25.671Z,69.70
2023-02-07T06:34:52.464Z,69.70
2023-02-07T06:37:19.275Z,69.70
2023-02-07T06:39:45.859Z,69.70
2023-02-07T06:42:12.901Z,69.70
2023-02-07T06:44:39.506Z,69.70
2023-02-07T06:47:06.195Z,69.80
2023-02-07T06:49:32.766Z,69.80
2023-02-07T06:51:59.451Z,69.80
2023-02-07T06:54:26.145Z,69.70
2023-02-07T06:56:52.978Z,69.80
2023-02-07T06:59:19.696Z,69.80
2023-02-07T07:01:48.406Z,69.90
2023-02-07T07:04:16.010Z,69.90
2023-02-07T07:06:42.689Z,69.90
2023-02-07T07:09:09.279Z,69.80
2023-02-07T07:11:42.799Z,69.80
2023-02-07T07:14:10.180Z,69.80
2023-02-07T07:16:36.838Z,69.70
2023-02-07T07:19:03.720Z,69.70
2023-02-07T07:21:30.339Z,69.70
2023-02-07T07:23:56.958Z,69.60
2023-02-07T07:26:24.136Z,69.50
2023-02-07T07:28:50.827Z,69.50
2023-02-07T07:31:17.528Z,69.20
2023-02-07T07:33:44.223Z,69.00
2023-02-07T07:36:10.857Z,68.90
2023-02-07T07:41:08.974Z,68.80
2023-02-07T07:43:35.641Z,68.70
2023-02-07T07:46:02.258Z,68.50
2023-02-07T07:48:29.041Z,68.50
2023-02-07T07:50:55.916Z,68.40
2023-02-07T07:53:22.567Z,68.20
2023-02-07T07:55:50.711Z,68.00
2023-02-07T07:58:17.897Z,67.80
2023-02-07T08:00:44.737Z,67.60
2023-02-07T08:03:12.672Z,67.50
2023-02-07T08:05:39.573Z,67.40
2023-02-07T08:08:06.802Z,67.30
2023-02-07T08:10:34.005Z,66.90
2023-02-07T08:13:00.692Z,66.70
2023-02-07T08:15:27.349Z,66.70
2023-02-07T08:17:53.945Z,66.40
2023-02-07T08:20:20.748Z,66.00
2023-02-07T08:22:47.398Z,66.00
2023-02-07T08:25:14.074Z,65.90
2023-02-07T08:27:40.688Z,65.90
2023-02-07T08:30:09.351Z,65.70
2023-02-07T08:32:36.068Z,65.50
2023-02-07T08:35:02.753Z,65.30
2023-02-07T08:37:29.392Z,65.20
2023-02-07T08:39:56.035Z,65.00
2023-02-07T08:42:22.945Z,64.70
2023-02-07T08:44:50.279Z,64.30
2023-02-07T08:47:18.024Z,64.10
2023-02-07T08:49:45.434Z,63.90
2023-02-07T08:52:12.737Z,63.60
2023-02-07T08:54:39.400Z,63.60
2023-02-07T08:57:06.278Z,63.40
2023-02-07T08:59:32.894Z,63.40
2023-02-07T09:01:59.559Z,63.30
2023-02-07T09:04:26.901Z,63.20
2023-02-07T09:06:53.657Z,62.70
2023-02-07T09:09:20.311Z,62.30
2023-02-07T09:11:46.997Z,62.10
2023-02-07T09:14:13.608Z,61.90
2023-02-07T09:16:40.673Z,61.60
2023-02-07T09:19:07.434Z,61.10
2023-02-07T09:21:34.161Z,60.80
2023-02-07T09:24:00.769Z,60.90
2023-02-07T09:26:27.464Z,60.70
2023-02-07T09:28:54.115Z,60.50
2023-02-07T09:31:21.871Z,60.60
2023-02-07T09:33:48.551Z,60.10
2023-02-07T09:36:26.551Z,59.90
2023-02-07T09:38:54.156Z,59.60
2023-02-07T09:41:42.157Z,59.70
2023-02-07T09:44:40.553Z,59.30
2023-02-07T09:47:11.760Z,59.20
2023-02-07T09:50:03.477Z,59.30
2023-02-07T09:52:35.752Z,59.10
2023-02-07T09:55:05.349Z,58.90
2023-02-07T09:57:38.130Z,59.00
2023-02-07T10:00:25.797Z,58.70
2023-02-07T10:03:03.970Z,58.80
2023-02-07T10:05:41.972Z,58.70
2023-02-07T10:08:15.711Z,58.50
2023-02-07T10:11:04.118Z,58.20
2023-02-07T10:13:55.336Z,57.90
2023-02-07T10:16:58.544Z,57.80
2023-02-07T10:19:44.522Z,57.70
2023-02-07T10:22:31.437Z,58.00
2023-02-07T10:25:27.155Z,57.90
2023-02-07T10:27:59.772Z,57.70
2023-02-07T10:30:35.995Z,57.60
2023-02-07T10:33:13.768Z,57.40
2023-02-07T10:35:40.553Z,57.40
2023-02-07T10:38:41.973Z,57.80
2023-02-07T10:41:22.478Z,57.40
2023-02-07T10:43:49.329Z,57.10
2023-02-07T10:46:20.497Z,56.90
2023-02-07T10:48:48.506Z,56.70
2023-02-07T10:51:35.620Z,56.30
2023-02-07T10:54:12.478Z,56.00
2023-02-07T10:57:01.748Z,56.10
2023-02-07T10:59:45.965Z,55.60
2023-02-07T11:02:33.481Z,55.60
2023-02-07T11:05:08.194Z,55.40
2023-02-07T11:07:46.295Z,55.60
2023-02-07T11:10:24.617Z,55.50
2023-02-07T11:12:56.977Z,55.20
2023-02-07T11:15:44.157Z,54.80
2023-02-07T11:18:37.527Z,54.70
2023-02-07T11:21:23.900Z,54.20
2023-02-07T11:23:52.129Z,54.10
2023-02-07T11:26:20.886Z,54.40
2023-02-07T11:28:52.141Z,54.30
2023-02-07T11:31:24.686Z,54.30
2023-02-07T11:33:51.503Z,54.30
2023-02-07T11:36:18.825Z,54.00
2023-02-07T11:38:53.919Z,53.50
2023-02-07T11:41:25.422Z,52.60
2023-02-07T11:43:55.586Z,52.50
2023-02-07T11:46:24.540Z,52.60
2023-02-07T11:48:54.991Z,52.20
2023-02-07T11:51:22.579Z,52.10
2023-02-07T11:53:55.500Z,51.80
2023-02-07T11:56:33.637Z,51.60
2023-02-07T11:59:05.837Z,51.50
2023-02-07T12:01:34.314Z,51.40
2023-02-07T12:04:09.008Z,51.10
2023-02-07T12:06:44.591Z,50.90
2023-02-07T12:09:33.445Z,50.80
2023-02-07T12:12:04.059Z,49.60
2023-02-07T12:14:41.786Z,50.10
2023-02-07T12:17:17.026Z,50.00
2023-02-07T12:20:00.117Z,49.60
2023-02-07T12:22:35.311Z,49.40
2023-02-07T12:25:14.128Z,49.60
2023-02-07T12:27:47.665Z,49.30
2023-02-07T12:30:32.958Z,49.10
2023-02-07T12:33:31.413Z,50.20
2023-02-07T12:36:19.721Z,49.70
2023-02-07T12:39:03.820Z,49.40
2023-02-07T12:41:37.928Z,49.20
2023-02-07T12:44:20.763Z,49.10
2023-02-07T12:46:53.464Z,48.80
2023-02-07T12:49:35.958Z,48.80
2023-02-07T12:52:20.143Z,48.70
2023-02-07T12:55:01.834Z,48.30
2023-02-07T12:57:49.474Z,48.80
2023-02-07T13:00:25.158Z,48.60
2023-02-07T13:03:08.885Z,48.70
2023-02-07T13:06:06.177Z,48.80
2023-02-07T13:08:38.933Z,48.30
2023-02-07T13:11:37.131Z,47.60
2023-02-07T13:14:12.500Z,47.90
2023-02-07T13:16:52.134Z,47.80
2023-02-07T13:19:27.520Z,47.70
2023-02-07T13:22:01.030Z,48.20
2023-02-07T13:24:29.063Z,48.30
2023-02-07T13:27:00.743Z,48.40
2023-02-07T13:29:32.131Z,47.50
2023-02-07T13:32:03.050Z,47.80
2023-02-07T13:34:41.824Z,48.00
2023-02-07T13:37:17.076Z,47.70
2023-02-07T13:40:06.127Z,47.50
2023-02-07T13:42:43.516Z,47.60
2023-02-07T13:45:30.600Z,47.60
2023-02-07T13:48:25.095Z,47.60
2023-02-07T13:50:51.666Z,47.80
2023-02-07T13:53:46.540Z,47.70
2023-02-07T13:56:34.975Z,47.30
2023-02-07T13:59:20.864Z,47.60
2023-02-07T14:01:51.478Z,47.80
2023-02-07T14:04:19.798Z,47.20
2023-02-07T14:07:00.353Z,47.20
2023-02-07T14:09:35.468Z,46.50
2023-02-07T14:12:06.456Z,47.00
2023-02-07T14:14:38.778Z,47.10
2023-02-07T14:17:27.932Z,47.00
2023-02-07T14:19:56.390Z,47.10
2023-02-07T14:22:49.297Z,47.30
2023-02-07T14:25:23.050Z,47.20
2023-02-07T14:27:52.675Z,47.30
2023-02-07T14:30:30.488Z,47.40
2023-02-07T14:33:19.353Z,47.10
2023-02-07T14:36:04.167Z,46.80
2023-02-07T14:38:41.068Z,47.10
2023-02-07T14:41:13.755Z,46.80
2023-02-07T14:44:07.393Z,46.80
2023-02-07T14:46:38.138Z,46.80
2023-02-07T14:49:21.830Z,47.20
2023-02-07T14:51:51.731Z,47.40
2023-02-07T14:54:42.992Z,47.70
2023-02-07T14:57:36.876Z,47.60
2023-02-07T15:00:12.603Z,48.00
2023-02-07T15:03:05.148Z,48.20
2023-02-07T15:05:35.117Z,48.20
2023-02-07T15:08:16.545Z,48.30
2023-02-07T15:10:56.997Z,48.20
2023-02-07T15:13:26.723Z,48.20
2023-02-07T15:16:01.492Z,48.60
2023-02-07T15:18:33.251Z,48.70
2023-02-07T15:21:00.394Z,48.60
2023-02-07T15:23:30.365Z,48.50
2023-02-07T15:26:00.352Z,48.30
2023-02-07T15:28:29.280Z,48.40
2023-02-07T15:30:56.475Z,48.40
2023-02-07T15:33:24.887Z,48.40
2023-02-07T15:35:51.764Z,48.50
2023-02-07T15:38:27.973Z,48.60
2023-02-07T15:40:55.428Z,48.50
2023-02-07T15:43:35.012Z,48.70
2023-02-07T15:46:11.996Z,48.80
2023-02-07T15:48:50.873Z,48.90
2023-02-07T15:51:20.550Z,49.00
2023-02-07T15:53:54.386Z,49.30
2023-02-07T15:56:21.170Z,49.40
2023-02-07T15:58:49.173Z,49.60
2023-02-07T16:01:25.890Z,49.90
2023-02-07T16:03:55.561Z,50.10
2023-02-07T16:06:24.901Z,50.30
2023-02-07T16:08:57.293Z,50.60
2023-02-07T16:11:26.665Z,50.80
2023-02-07T16:14:02.549Z,51.10
2023-02-07T16:16:52.630Z,51.30
2023-02-07T16:19:26.274Z,51.50
2023-02-07T16:22:10.812Z,51.60
2023-02-07T16:24:40.843Z,51.90
2023-02-07T16:27:07.655Z,52.00
2023-02-07T16:29:36.187Z,52.10
2023-02-07T16:32:02.980Z,52.30
2023-02-07T16:34:29.637Z,52.60
2023-02-07T16:36:57.181Z,52.80
2023-02-07T16:39:24.308Z,53.00
2023-02-07T16:41:55.615Z,53.20
2023-02-07T16:44:24.686Z,53.40
2023-02-07T16:46:52.054Z,53.60
2023-02-07T16:49:23.710Z,53.90
2023-02-07T16:51:50.887Z,54.20
2023-02-07T16:54:17.820Z,54.40
2023-02-07T16:56:46.634Z,54.70
2023-02-07T16:59:20.407Z,54.90
2023-02-07T17:01:47.936Z,55.10
2023-02-07T17:04:14.898Z,55.30
2023-02-07T17:06:43.771Z,55.40
2023-02-07T17:09:36.668Z,55.60
2023-02-07T17:12:03.501Z,55.90
2023-02-07T17:14:30.130Z,55.90
2023-02-07T17:16:58.631Z,56.10
2023-02-07T17:19:27.853Z,56.20
2023-02-07T17:21:56.494Z,56.40
2023-02-07T17:24:23.103Z,56.50
2023-02-07T17:26:52.544Z,56.70
2023-02-07T17:29:19.611Z,56.90
2023-02-07T17:31:47.029Z,57.00
2023-02-07T17:34:13.712Z,57.20
2023-02-07T17:36:49.395Z,57.30
2023-02-07T17:39:18.185Z,57.50
2023-02-07T17:41:44.920Z,57.40
2023-02-07T17:44:11.531Z,57.50
2023-02-07T17:46:38.218Z,57.70
2023-02-07T17:49:06.192Z,57.80
2023-02-07T17:51:33.032Z,58.00
2023-02-07T17:53:59.667Z,58.10
2023-02-07T17:56:31.801Z,58.30
2023-02-07T17:59:05.183Z,58.50
2023-02-07T18:01:32.798Z,58.70
2023-02-07T18:03:59.466Z,58.80
2023-02-07T18:06:28.287Z,59.00
2023-02-07T18:08:57.375Z,59.20
2023-02-07T18:11:25.034Z,59.40
2023-02-07T18:13:51.630Z,59.60
2023-02-07T18:16:22.048Z,59.80
2023-02-07T18:18:49.924Z,60.00
2023-02-07T18:21:16.582Z,60.10
2023-02-07T18:23:43.269Z,60.20
2023-02-07T18:26:15.102Z,60.30
2023-02-07T18:28:43.678Z,60.60
2023-02-07T18:31:16.179Z,60.60
2023-02-07T18:33:42.949Z,60.90
2023-02-07T18:36:10.154Z,61.00
2023-02-07T18:38:37.524Z,61.20
2023-02-07T18:41:15.682Z,61.30
2023-02-07T18:43:42.822Z,61.80
2023-02-07T18:46:14.992Z,61.60
2023-02-07T18:48:41.760Z,61.70
2023-02-07T18:51:10.571Z,61.70
2023-02-07T18:53:37.850Z,61.90
2023-02-07T18:56:11.227Z,61.90
2023-02-07T18:58:38.503Z,62.10
2023-02-07T19:01:10.392Z,62.00
2023-02-07T19:03:38.512Z,62.30
2023-02-07T19:06:06.698Z,62.30
2023-02-07T19:08:33.382Z,62.40
2023-02-07T19:11:02.735Z,62.50
2023-02-07T19:13:30.009Z,62.60
2023-02-07T19:16:08.071Z,62.70
2023-02-07T19:18:35.024Z,62.90
2023-02-07T19:21:09.282Z,62.80
2023-02-07T19:23:36.457Z,62.90
2023-02-07T19:26:03.860Z,62.80
2023-02-07T19:28:31.203Z,62.90
2023-02-07T19:30:58.146Z,62.90
2023-02-07T19:33:24.981Z,63.00
2023-02-07T19:35:51.666Z,63.10
2023-02-07T19:38:18.268Z,63.20
2023-02-07T19:40:45.148Z,63.20
2023-02-07T19:43:12.655Z,63.20
2023-02-07T19:45:39.272Z,63.30
2023-02-07T19:48:06.005Z,63.30
2023-02-07T19:50:32.688Z,63.50
2023-02-07T19:52:59.282Z,63.70
2023-02-07T19:55:25.854Z,63.80
2023-02-07T19:57:53.021Z,63.90
2023-02-07T20:00:19.669Z,64.10
2023-02-07T20:02:46.283Z,64.20
2023-02-07T20:05:12.901Z,64.20
2023-02-07T20:07:39.537Z,64.30
2023-02-07T20:10:06.471Z,64.30
2023-02-07T20:12:33.099Z,64.40
2023-02-07T20:14:59.705Z,64.40
2023-02-07T20:17:26.322Z,64.50
2023-02-07T20:19:52.921Z,64.50
2023-02-07T20:22:19.493Z,64.50
2023-02-07T20:24:46.142Z,64.50
2023-02-07T20:27:12.844Z,64.50
2023-02-07T20:29:39.430Z,64.60
2023-02-07T20:32:06.112Z,64.60
2023-02-07T20:34:32.815Z,64.60
2023-02-07T20:36:59.620Z,64.70
2023-02-07T20:39:29.104Z,64.70
2023-02-07T20:41:55.701Z,64.70
2023-02-07T20:44:24.396Z,64.80
2023-02-07T20:46:51.545Z,64.90
2023-02-07T20:49:26.135Z,65.00
2023-02-07T20:51:54.118Z,65.10
2023-02-07T20:54:23.936Z,65.10
2023-02-07T20:56:52.010Z,65.20
2023-02-07T20:59:21.701Z,65.30
2023-02-07T21:01:48.926Z,65.30
2023-02-07T21:04:15.778Z,65.30
2023-02-07T21:06:42.740Z,65.40
2023-02-07T21:09:09.694Z,65.50
2023-02-07T21:11:37.438Z,65.60
2023-02-07T21:14:12.895Z,65.50
2023-02-07T21:16:39.788Z,65.60
2023-02-07T21:19:06.456Z,65.50
2023-02-07T21:21:33.109Z,65.50
2023-02-07T21:23:59.846Z,65.50
2023-02-07T21:26:27.287Z,65.50
2023-02-07T21:29:04.767Z,65.50
2023-02-07T21:31:34.149Z,65.60
2023-02-07T21:34:01.969Z,65.50
2023-02-07T21:36:31.020Z,65.50
2023-02-07T21:38:59.491Z,65.50
2023-02-07T21:41:27.586Z,65.60
2023-02-07T21:43:55.349Z,65.60
2023-02-07T21:46:24.936Z,65.60
2023-02-07T21:49:01.630Z,65.50
2023-02-07T21:51:30.632Z,65.60
2023-02-07T21:53:58.238Z,65.50
2023-02-07T21:56:27.568Z,65.50
2023-02-07T21:58:59.816Z,65.60
2023-02-07T22:01:27.929Z,65.60
2023-02-07T22:03:57.477Z,65.60
2023-02-07T22:06:24.718Z,65.60
2023-02-07T22:08:57.006Z,65.60
2023-02-07T22:11:26.304Z,65.50
2023-02-07T22:13:53.825Z,65.60
2023-02-07T22:16:22.256Z,65.70
2023-02-07T22:18:52.363Z,65.70
2023-02-07T22:21:24.627Z,65.70
2023-02-07T22:23:51.795Z,65.70
2023-02-07T22:26:19.016Z,65.70
2023-02-07T22:28:47.091Z,65.70
2023-02-07T22:31:16.578Z,65.80
2023-02-07T22:33:43.454Z,65.80
2023-02-07T22:36:15.001Z,65.70
2023-02-07T22:38:41.768Z,65.80
2023-02-07T22:41:09.236Z,65.70
2023-02-07T22:43:36.355Z,65.80
2023-02-07T22:46:04.859Z,65.80
2023-02-07T22:48:32.294Z,65.70
2023-02-07T22:51:00.124Z,65.70
2023-02-07T22:53:27.381Z,65.70
2023-02-07T22:55:54.027Z,65.80
2023-02-07T22:58:20.652Z,65.70
2023-02-07T23:00:47.270Z,65.80
2023-02-07T23:03:13.924Z,65.80
2023-02-07T23:05:40.533Z,65.90
2023-02-07T23:08:07.358Z,65.90
2023-02-07T23:10:34.076Z,66.00
2023-02-07T23:13:01.104Z,66.10
2023-02-07T23:15:28.246Z,66.10
2023-02-07T23:17:54.895Z,66.20
2023-02-07T23:20:21.524Z,66.20
2023-02-07T23:22:48.157Z,66.10
2023-02-07T23:25:18.256Z,66.10
2023-02-07T23:27:45.292Z,66.10
2023-02-07T23:30:13.856Z,66.10
2023-02-07T23:32:40.931Z,66.10
2023-02-07T23:35:07.941Z,66.10
2023-02-07T23:37:35.394Z,66.10
2023-02-07T23:40:02.151Z,66.10
2023-02-07T23:42:28.779Z,66.10
2023-02-07T23:44:55.400Z,66.10
2023-02-07T23:47:22.001Z,66.20
2023-02-07T23:49:48.607Z,66.20
2023-02-07T23:52:15.217Z,66.10
2023-02-07T23:54:41.809Z,66.20
2023-02-07T23:57:08.403Z,66.10
2023-02-07T23:59:35.091Z,66.10
